Goshen, Indiana
Current Conditions -  °F | °C
As of 9:41 AM on Saturday 25 Oct 2014 (Local Time) from KGSH Reporting Station
Haze Haze  
Wind Chill: 55°   Ceiling: Unl
Heat Index: 55°   Visibility: 4mi
Dew Point: 52°   Wind: 8mph
Humidity: 89%   Direction: 250°WSW
Pressure: 29.91"   Gusts: NA
Location:  41.59°N, 85.84°W
Report Text: KGSH 251341Z AUTO 25007KT 4SM BR FEW008 13/11 A2991 RMK AO2 T01280111
Loading
Personal Weather Stations






























Interactive Weather Map New forecast layout! Learn more

10-Day Weather Forecast

Advertisements
Track Severe Weather on mobile